sensor_id;sensor_type;location;lat;lon;timestamp;temperature;humidity
947;DHT22;460;48.734;9.152;2022-11-25T00:02:26;3.00;99.90
947;DHT22;460;48.734;9.152;2022-11-25T00:04:53;3.30;99.90
947;DHT22;460;48.734;9.152;2022-11-25T00:07:19;3.00;99.90
947;DHT22;460;48.734;9.152;2022-11-25T00:09:46;3.00;99.90
947;DHT22;460;48.734;9.152;2022-11-25T00:12:13;2.90;99.90
947;DHT22;460;48.734;9.152;2022-11-25T00:14:41;2.90;99.90
947;DHT22;460;48.734;9.152;2022-11-25T00:17:08;2.90;99.90
947;DHT22;460;48.734;9.152;2022-11-25T00:19:35;3.10;99.90
947;DHT22;460;48.734;9.152;2022-11-25T00:22:01;3.00;99.90
947;DHT22;460;48.734;9.152;2022-11-25T00:24:28;2.90;99.90
947;DHT22;460;48.734;9.152;2022-11-25T00:26:55;3.00;99.90
947;DHT22;460;48.734;9.152;2022-11-25T00:29:22;3.00;99.90
947;DHT22;460;48.734;9.152;2022-11-25T00:31:50;3.00;99.90
947;DHT22;460;48.734;9.152;2022-11-25T00:34:17;3.00;99.90
947;DHT22;460;48.734;9.152;2022-11-25T00:36:44;3.00;99.90
947;DHT22;460;48.734;9.152;2022-11-25T00:39:12;3.00;99.90
947;DHT22;460;48.734;9.152;2022-11-25T00:41:39;3.00;99.90
947;DHT22;460;48.734;9.152;2022-11-25T00:44:24;3.10;99.90
947;DHT22;460;48.734;9.152;2022-11-25T00:47:07;3.10;99.90
947;DHT22;460;48.734;9.152;2022-11-25T00:49:35;3.20;99.90
947;DHT22;460;48.734;9.152;2022-11-25T00:52:02;3.20;99.90
947;DHT22;460;48.734;9.152;2022-11-25T00:54:29;3.20;99.90
947;DHT22;460;48.734;9.152;2022-11-25T00:56:56;3.20;99.90
947;DHT22;460;48.734;9.152;2022-11-25T00:59:23;3.20;99.90
947;DHT22;460;48.734;9.152;2022-11-25T01:01:50;3.20;99.90
947;DHT22;460;48.734;9.152;2022-11-25T01:04:18;3.30;99.90
947;DHT22;460;48.734;9.152;2022-11-25T01:06:45;3.30;99.90
947;DHT22;460;48.734;9.152;2022-11-25T01:09:12;3.40;99.90
947;DHT22;460;48.734;9.152;2022-11-25T01:11:39;3.50;99.90
947;DHT22;460;48.734;9.152;2022-11-25T01:14:07;3.50;99.90
947;DHT22;460;48.734;9.152;2022-11-25T01:16:34;3.60;99.90
947;DHT22;460;48.734;9.152;2022-11-25T01:19:01;3.70;99.90
947;DHT22;460;48.734;9.152;2022-11-25T01:21:31;3.70;99.90
947;DHT22;460;48.734;9.152;2022-11-25T01:23:59;3.80;99.90
947;DHT22;460;48.734;9.152;2022-11-25T01:26:27;3.90;99.90
947;DHT22;460;48.734;9.152;2022-11-25T01:28:56;3.90;99.90
947;DHT22;460;48.734;9.152;2022-11-25T01:31:24;3.90;99.90
947;DHT22;460;48.734;9.152;2022-11-25T01:33:54;3.90;99.90
947;DHT22;460;48.734;9.152;2022-11-25T01:36:21;3.90;99.90
947;DHT22;460;48.734;9.152;2022-11-25T01:38:51;3.90;99.90
947;DHT22;460;48.734;9.152;2022-11-25T01:41:19;4.00;99.90
947;DHT22;460;48.734;9.152;2022-11-25T01:44:02;4.00;99.90
947;DHT22;460;48.734;9.152;2022-11-25T01:46:31;3.90;99.90
947;DHT22;460;48.734;9.152;2022-11-25T01:49:04;3.90;99.90
947;DHT22;460;48.734;9.152;2022-11-25T01:51:38;3.80;99.90
947;DHT22;460;48.734;9.152;2022-11-25T01:54:09;4.20;99.90
947;DHT22;460;48.734;9.152;2022-11-25T01:56:40;3.80;99.90
947;DHT22;460;48.734;9.152;2022-11-25T01:59:09;3.80;99.90
947;DHT22;460;48.734;9.152;2022-11-25T02:01:36;3.80;99.90
947;DHT22;460;48.734;9.152;2022-11-25T02:04:05;3.80;99.90
947;DHT22;460;48.734;9.152;2022-11-25T02:06:36;3.80;99.90
947;DHT22;460;48.734;9.152;2022-11-25T02:09:07;3.80;99.90
947;DHT22;460;48.734;9.152;2022-11-25T02:11:38;3.90;99.90
947;DHT22;460;48.734;9.152;2022-11-25T02:14:06;3.90;99.90
947;DHT22;460;48.734;9.152;2022-11-25T02:16:34;3.90;99.90
947;DHT22;460;48.734;9.152;2022-11-25T02:19:01;3.90;99.90
947;DHT22;460;48.734;9.152;2022-11-25T02:21:35;3.90;99.90
947;DHT22;460;48.734;9.152;2022-11-25T02:24:10;4.00;99.90
947;DHT22;460;48.734;9.152;2022-11-25T02:26:41;3.90;99.90
947;DHT22;460;48.734;9.152;2022-11-25T02:29:08;3.90;99.90
947;DHT22;460;48.734;9.152;2022-11-25T02:31:35;3.90;99.90
947;DHT22;460;48.734;9.152;2022-11-25T02:34:02;3.90;99.90
947;DHT22;460;48.734;9.152;2022-11-25T02:36:30;3.80;99.90
947;DHT22;460;48.734;9.152;2022-11-25T02:38:58;3.80;99.90
947;DHT22;460;48.734;9.152;2022-11-25T02:41:29;3.80;99.90
947;DHT22;460;48.734;9.152;2022-11-25T02:43:59;3.70;99.90
947;DHT22;460;48.734;9.152;2022-11-25T02:46:27;3.70;99.90
947;DHT22;460;48.734;9.152;2022-11-25T02:48:56;3.70;99.90
947;DHT22;460;48.734;9.152;2022-11-25T02:51:25;3.60;99.90
947;DHT22;460;48.734;9.152;2022-11-25T02:53:52;3.60;99.90
947;DHT22;460;48.734;9.152;2022-11-25T02:56:23;3.70;99.90
947;DHT22;460;48.734;9.152;2022-11-25T02:58:50;3.40;99.90
947;DHT22;460;48.734;9.152;2022-11-25T03:01:19;3.50;99.90
947;DHT22;460;48.734;9.152;2022-11-25T03:03:46;3.40;99.90
947;DHT22;460;48.734;9.152;2022-11-25T03:06:13;3.30;99.90
947;DHT22;460;48.734;9.152;2022-11-25T03:08:40;3.50;99.90
947;DHT22;460;48.734;9.152;2022-11-25T03:11:07;3.30;99.90
947;DHT22;460;48.734;9.152;2022-11-25T03:13:34;3.30;99.90
947;DHT22;460;48.734;9.152;2022-11-25T03:16:01;3.40;99.90
947;DHT22;460;48.734;9.152;2022-11-25T03:18:30;3.40;99.90
947;DHT22;460;48.734;9.152;2022-11-25T03:20:57;3.20;99.90
947;DHT22;460;48.734;9.152;2022-11-25T03:23:24;3.20;99.90
947;DHT22;460;48.734;9.152;2022-11-25T03:25:52;3.30;99.90
947;DHT22;460;48.734;9.152;2022-11-25T03:28:19;3.30;99.90
947;DHT22;460;48.734;9.152;2022-11-25T03:30:46;3.20;99.90
947;DHT22;460;48.734;9.152;2022-11-25T03:33:13;3.40;99.90
947;DHT22;460;48.734;9.152;2022-11-25T03:35:42;3.40;99.90
947;DHT22;460;48.734;9.152;2022-11-25T03:38:09;3.40;99.90
947;DHT22;460;48.734;9.152;2022-11-25T03:40:36;3.40;99.90
947;DHT22;460;48.734;9.152;2022-11-25T03:43:03;3.50;99.90
947;DHT22;460;48.734;9.152;2022-11-25T03:45:30;3.50;99.90
947;DHT22;460;48.734;9.152;2022-11-25T03:47:57;3.40;99.90
947;DHT22;460;48.734;9.152;2022-11-25T03:50:24;3.40;99.90
947;DHT22;460;48.734;9.152;2022-11-25T03:52:52;3.40;99.90
947;DHT22;460;48.734;9.152;2022-11-25T03:55:19;3.50;99.90
947;DHT22;460;48.734;9.152;2022-11-25T03:57:46;3.50;99.90
947;DHT22;460;48.734;9.152;2022-11-25T04:00:14;3.40;99.90
947;DHT22;460;48.734;9.152;2022-11-25T04:02:41;3.40;99.90
947;DHT22;460;48.734;9.152;2022-11-25T04:05:08;3.40;99.90
947;DHT22;460;48.734;9.152;2022-11-25T04:07:35;3.40;99.90
947;DHT22;460;48.734;9.152;2022-11-25T04:10:04;3.40;99.90
947;DHT22;460;48.734;9.152;2022-11-25T04:12:31;3.40;99.90
947;DHT22;460;48.734;9.152;2022-11-25T04:15:14;3.40;99.90
947;DHT22;460;48.734;9.152;2022-11-25T04:17:41;3.30;99.90
947;DHT22;460;48.734;9.152;2022-11-25T04:20:10;3.20;99.90
947;DHT22;460;48.734;9.152;2022-11-25T04:22:37;3.30;99.90
947;DHT22;460;48.734;9.152;2022-11-25T04:25:06;3.20;99.90
947;DHT22;460;48.734;9.152;2022-11-25T04:27:33;3.20;99.90
947;DHT22;460;48.734;9.152;2022-11-25T04:30:00;3.20;99.90
947;DHT22;460;48.734;9.152;2022-11-25T04:32:27;3.20;99.90
947;DHT22;460;48.734;9.152;2022-11-25T04:34:54;3.20;99.90
947;DHT22;460;48.734;9.152;2022-11-25T04:37:21;3.20;99.90
947;DHT22;460;48.734;9.152;2022-11-25T04:39:47;3.20;99.90
947;DHT22;460;48.734;9.152;2022-11-25T04:42:16;3.10;99.90
947;DHT22;460;48.734;9.152;2022-11-25T04:44:58;3.20;99.90
947;DHT22;460;48.734;9.152;2022-11-25T04:47:24;3.10;99.90
947;DHT22;460;48.734;9.152;2022-11-25T04:49:51;3.20;99.90
947;DHT22;460;48.734;9.152;2022-11-25T04:52:18;3.20;99.90
947;DHT22;460;48.734;9.152;2022-11-25T04:54:45;3.20;99.90
947;DHT22;460;48.734;9.152;2022-11-25T04:57:12;3.20;99.90
947;DHT22;460;48.734;9.152;2022-11-25T04:59:42;3.20;99.90
947;DHT22;460;48.734;9.152;2022-11-25T05:02:12;3.20;99.90
947;DHT22;460;48.734;9.152;2022-11-25T05:04:40;3.90;99.90
947;DHT22;460;48.734;9.152;2022-11-25T05:07:07;3.00;99.90
947;DHT22;460;48.734;9.152;2022-11-25T05:09:34;3.00;99.90
947;DHT22;460;48.734;9.152;2022-11-25T05:12:01;3.00;99.90
947;DHT22;460;48.734;9.152;2022-11-25T05:14:28;3.20;99.90
947;DHT22;460;48.734;9.152;2022-11-25T05:16:57;2.90;99.90
947;DHT22;460;48.734;9.152;2022-11-25T05:19:23;2.90;99.90
947;DHT22;460;48.734;9.152;2022-11-25T05:21:50;2.90;99.90
947;DHT22;460;48.734;9.152;2022-11-25T05:24:17;2.80;99.90
947;DHT22;460;48.734;9.152;2022-11-25T05:26:44;3.00;99.90
947;DHT22;460;48.734;9.152;2022-11-25T05:29:10;3.00;99.90
947;DHT22;460;48.734;9.152;2022-11-25T05:31:38;3.00;99.90
947;DHT22;460;48.734;9.152;2022-11-25T05:34:06;3.00;99.90
947;DHT22;460;48.734;9.152;2022-11-25T05:36:33;2.90;99.90
947;DHT22;460;48.734;9.152;2022-11-25T05:39:00;3.10;99.90
947;DHT22;460;48.734;9.152;2022-11-25T05:41:27;2.90;99.90
947;DHT22;460;48.734;9.152;2022-11-25T05:43:54;2.80;99.90
947;DHT22;460;48.734;9.152;2022-11-25T05:46:21;2.90;99.90
947;DHT22;460;48.734;9.152;2022-11-25T05:48:52;2.80;99.90
947;DHT22;460;48.734;9.152;2022-11-25T05:51:20;2.80;99.90
947;DHT22;460;48.734;9.152;2022-11-25T05:53:47;2.60;99.90
947;DHT22;460;48.734;9.152;2022-11-25T05:56:14;2.60;99.90
947;DHT22;460;48.734;9.152;2022-11-25T05:58:41;2.60;99.90
947;DHT22;460;48.734;9.152;2022-11-25T06:01:09;2.60;99.90
947;DHT22;460;48.734;9.152;2022-11-25T06:03:36;2.50;99.90
947;DHT22;460;48.734;9.152;2022-11-25T06:06:04;2.50;99.90
947;DHT22;460;48.734;9.152;2022-11-25T06:08:32;2.40;99.90
947;DHT22;460;48.734;9.152;2022-11-25T06:11:02;2.50;99.90
947;DHT22;460;48.734;9.152;2022-11-25T06:13:29;2.50;99.90
947;DHT22;460;48.734;9.152;2022-11-25T06:15:56;2.40;99.90
947;DHT22;460;48.734;9.152;2022-11-25T06:18:23;2.30;99.90
947;DHT22;460;48.734;9.152;2022-11-25T06:20:55;2.40;99.90
947;DHT22;460;48.734;9.152;2022-11-25T06:23:22;2.40;99.90
947;DHT22;460;48.734;9.152;2022-11-25T06:25:51;2.50;99.90
947;DHT22;460;48.734;9.152;2022-11-25T06:28:18;2.50;99.90
947;DHT22;460;48.734;9.152;2022-11-25T06:30:44;2.50;99.90
947;DHT22;460;48.734;9.152;2022-11-25T06:33:12;2.60;99.90
947;DHT22;460;48.734;9.152;2022-11-25T06:35:39;2.60;99.90
947;DHT22;460;48.734;9.152;2022-11-25T06:38:06;2.60;99.90
947;DHT22;460;48.734;9.152;2022-11-25T06:40:33;3.10;99.90
947;DHT22;460;48.734;9.152;2022-11-25T06:43:02;2.60;99.90
947;DHT22;460;48.734;9.152;2022-11-25T06:45:30;2.60;99.90
947;DHT22;460;48.734;9.152;2022-11-25T06:47:57;2.60;99.90
947;DHT22;460;48.734;9.152;2022-11-25T06:50:24;2.60;99.90
947;DHT22;460;48.734;9.152;2022-11-25T06:52:51;2.60;99.90
947;DHT22;460;48.734;9.152;2022-11-25T06:55:18;2.70;99.90
947;DHT22;460;48.734;9.152;2022-11-25T06:57:44;2.80;99.90
947;DHT22;460;48.734;9.152;2022-11-25T07:00:14;2.70;99.90
947;DHT22;460;48.734;9.152;2022-11-25T07:02:41;2.60;99.90
947;DHT22;460;48.734;9.152;2022-11-25T07:05:08;2.80;99.90
947;DHT22;460;48.734;9.152;2022-11-25T07:07:35;2.90;99.90
947;DHT22;460;48.734;9.152;2022-11-25T07:10:06;3.00;99.90
947;DHT22;460;48.734;9.152;2022-11-25T07:12:34;3.00;99.90
947;DHT22;460;48.734;9.152;2022-11-25T07:15:00;3.20;99.90
947;DHT22;460;48.734;9.152;2022-11-25T07:17:29;3.20;99.90
947;DHT22;460;48.734;9.152;2022-11-25T07:19:56;3.80;99.90
947;DHT22;460;48.734;9.152;2022-11-25T07:22:23;3.20;99.90
947;DHT22;460;48.734;9.152;2022-11-25T07:24:49;3.20;99.90
947;DHT22;460;48.734;9.152;2022-11-25T07:27:16;3.50;99.90
947;DHT22;460;48.734;9.152;2022-11-25T07:29:43;3.80;99.90
947;DHT22;460;48.734;9.152;2022-11-25T07:32:10;4.50;99.90
947;DHT22;460;48.734;9.152;2022-11-25T07:34:39;3.70;99.90
947;DHT22;460;48.734;9.152;2022-11-25T07:37:05;3.80;99.90
947;DHT22;460;48.734;9.152;2022-11-25T07:39:33;3.70;99.90
947;DHT22;460;48.734;9.152;2022-11-25T07:41:59;3.80;99.90
947;DHT22;460;48.734;9.152;2022-11-25T07:44:26;3.90;99.90
947;DHT22;460;48.734;9.152;2022-11-25T07:46:53;3.90;99.90
947;DHT22;460;48.734;9.152;2022-11-25T07:49:21;3.90;99.90
947;DHT22;460;48.734;9.152;2022-11-25T07:51:52;4.00;99.90
947;DHT22;460;48.734;9.152;2022-11-25T07:54:20;4.00;99.90
947;DHT22;460;48.734;9.152;2022-11-25T07:56:48;4.10;99.90
947;DHT22;460;48.734;9.152;2022-11-25T07:59:17;4.20;99.90
947;DHT22;460;48.734;9.152;2022-11-25T08:01:51;4.30;99.90
947;DHT22;460;48.734;9.152;2022-11-25T08:04:19;4.40;99.90
947;DHT22;460;48.734;9.152;2022-11-25T08:06:48;4.40;99.90
947;DHT22;460;48.734;9.152;2022-11-25T08:09:18;4.30;99.90
947;DHT22;460;48.734;9.152;2022-11-25T08:11:46;4.40;99.90
947;DHT22;460;48.734;9.152;2022-11-25T08:14:14;4.50;99.90
947;DHT22;460;48.734;9.152;2022-11-25T08:16:40;4.50;99.90
947;DHT22;460;48.734;9.152;2022-11-25T08:19:10;4.60;99.90
947;DHT22;460;48.734;9.152;2022-11-25T08:21:38;4.60;99.90
947;DHT22;460;48.734;9.152;2022-11-25T08:24:12;4.70;99.90
947;DHT22;460;48.734;9.152;2022-11-25T08:26:42;4.70;99.90
947;DHT22;460;48.734;9.152;2022-11-25T08:29:12;4.70;99.90
947;DHT22;460;48.734;9.152;2022-11-25T08:31:45;4.80;99.90
947;DHT22;460;48.734;9.152;2022-11-25T08:34:17;4.80;99.90
947;DHT22;460;48.734;9.152;2022-11-25T08:36:44;5.00;99.90
947;DHT22;460;48.734;9.152;2022-11-25T08:39:11;5.10;99.90
947;DHT22;460;48.734;9.152;2022-11-25T08:41:38;5.30;99.90
947;DHT22;460;48.734;9.152;2022-11-25T08:44:07;5.50;99.90
947;DHT22;460;48.734;9.152;2022-11-25T08:46:36;5.50;99.90
947;DHT22;460;48.734;9.152;2022-11-25T08:49:06;5.50;99.90
947;DHT22;460;48.734;9.152;2022-11-25T08:51:35;5.80;99.90
947;DHT22;460;48.734;9.152;2022-11-25T08:54:02;5.50;99.90
947;DHT22;460;48.734;9.152;2022-11-25T08:56:29;5.50;99.90
947;DHT22;460;48.734;9.152;2022-11-25T08:58:57;5.70;99.90
947;DHT22;460;48.734;9.152;2022-11-25T09:01:26;5.70;99.90
947;DHT22;460;48.734;9.152;2022-11-25T09:03:54;6.20;99.90
947;DHT22;460;48.734;9.152;2022-11-25T09:06:23;5.80;99.90
947;DHT22;460;48.734;9.152;2022-11-25T09:08:52;6.00;99.90
947;DHT22;460;48.734;9.152;2022-11-25T09:11:19;5.90;99.90
947;DHT22;460;48.734;9.152;2022-11-25T09:13:46;6.10;99.90
947;DHT22;460;48.734;9.152;2022-11-25T09:16:13;6.20;99.90
947;DHT22;460;48.734;9.152;2022-11-25T09:18:41;6.20;99.90
947;DHT22;460;48.734;9.152;2022-11-25T09:21:11;6.30;99.90
947;DHT22;460;48.734;9.152;2022-11-25T09:23:39;6.40;99.90
947;DHT22;460;48.734;9.152;2022-11-25T09:26:06;6.50;99.90
947;DHT22;460;48.734;9.152;2022-11-25T09:28:34;6.60;99.90
947;DHT22;460;48.734;9.152;2022-11-25T09:31:06;6.80;99.90
947;DHT22;460;48.734;9.152;2022-11-25T09:33:33;6.70;99.90
947;DHT22;460;48.734;9.152;2022-11-25T09:36:01;6.80;99.90
947;DHT22;460;48.734;9.152;2022-11-25T09:38:28;6.80;99.90
947;DHT22;460;48.734;9.152;2022-11-25T09:40:59;6.80;99.90
947;DHT22;460;48.734;9.152;2022-11-25T09:43:34;6.70;99.90
947;DHT22;460;48.734;9.152;2022-11-25T09:46:37;6.90;99.90
947;DHT22;460;48.734;9.152;2022-11-25T09:49:26;6.90;99.90
947;DHT22;460;48.734;9.152;2022-11-25T09:52:06;6.90;99.90
947;DHT22;460;48.734;9.152;2022-11-25T09:54:37;7.00;99.90
947;DHT22;460;48.734;9.152;2022-11-25T09:57:20;7.10;99.90
947;DHT22;460;48.734;9.152;2022-11-25T09:59:57;7.10;99.90
947;DHT22;460;48.734;9.152;2022-11-25T10:02:32;7.60;99.90
947;DHT22;460;48.734;9.152;2022-11-25T10:05:05;7.20;99.90
947;DHT22;460;48.734;9.152;2022-11-25T10:07:37;7.30;99.90
947;DHT22;460;48.734;9.152;2022-11-25T10:10:08;7.20;99.90
947;DHT22;460;48.734;9.152;2022-11-25T10:12:42;7.30;99.90
947;DHT22;460;48.734;9.152;2022-11-25T10:15:15;7.30;99.90
947;DHT22;460;48.734;9.152;2022-11-25T10:17:46;7.40;99.90
947;DHT22;460;48.734;9.152;2022-11-25T10:20:19;7.50;99.90
947;DHT22;460;48.734;9.152;2022-11-25T10:22:50;7.60;99.90
947;DHT22;460;48.734;9.152;2022-11-25T10:25:20;7.90;99.90
947;DHT22;460;48.734;9.152;2022-11-25T10:27:51;7.90;99.90
947;DHT22;460;48.734;9.152;2022-11-25T10:30:22;8.00;99.90
947;DHT22;460;48.734;9.152;2022-11-25T10:32:52;8.20;99.90
947;DHT22;460;48.734;9.152;2022-11-25T10:35:28;8.20;99.90
947;DHT22;460;48.734;9.152;2022-11-25T10:38:00;8.30;99.90
947;DHT22;460;48.734;9.152;2022-11-25T10:40:27;8.40;99.90
947;DHT22;460;48.734;9.152;2022-11-25T10:42:54;8.80;99.90
947;DHT22;460;48.734;9.152;2022-11-25T10:45:27;8.80;99.90
947;DHT22;460;48.734;9.152;2022-11-25T10:48:21;8.90;99.90
947;DHT22;460;48.734;9.152;2022-11-25T10:51:02;9.00;99.90
947;DHT22;460;48.734;9.152;2022-11-25T10:53:33;9.00;99.90
947;DHT22;460;48.734;9.152;2022-11-25T10:56:02;9.00;99.90
947;DHT22;460;48.734;9.152;2022-11-25T10:58:32;8.90;99.90
947;DHT22;460;48.734;9.152;2022-11-25T11:01:03;9.00;99.90
947;DHT22;460;48.734;9.152;2022-11-25T11:03:30;9.00;99.90
947;DHT22;460;48.734;9.152;2022-11-25T11:05:57;9.00;99.90
947;DHT22;460;48.734;9.152;2022-11-25T11:08:27;9.00;99.90
947;DHT22;460;48.734;9.152;2022-11-25T11:11:20;9.00;99.90
947;DHT22;460;48.734;9.152;2022-11-25T11:13:49;9.10;99.90
947;DHT22;460;48.734;9.152;2022-11-25T11:16:29;8.90;99.90
947;DHT22;460;48.734;9.152;2022-11-25T11:18:57;9.00;99.90
947;DHT22;460;48.734;9.152;2022-11-25T11:21:29;9.00;99.90
947;DHT22;460;48.734;9.152;2022-11-25T11:23:56;8.90;99.90
947;DHT22;460;48.734;9.152;2022-11-25T11:26:28;8.90;99.90
947;DHT22;460;48.734;9.152;2022-11-25T11:29:00;8.90;99.90
947;DHT22;460;48.734;9.152;2022-11-25T11:31:33;8.80;99.90
947;DHT22;460;48.734;9.152;2022-11-25T11:34:17;8.90;99.90
947;DHT22;460;48.734;9.152;2022-11-25T11:36:59;8.90;99.90
947;DHT22;460;48.734;9.152;2022-11-25T11:39:57;8.90;99.90
947;DHT22;460;48.734;9.152;2022-11-25T11:42:35;8.80;99.90
947;DHT22;460;48.734;9.152;2022-11-25T11:45:15;8.80;99.90
947;DHT22;460;48.734;9.152;2022-11-25T11:47:58;8.80;99.90
947;DHT22;460;48.734;9.152;2022-11-25T11:50:32;8.70;99.90
947;DHT22;460;48.734;9.152;2022-11-25T11:53:08;8.70;99.90
947;DHT22;460;48.734;9.152;2022-11-25T11:55:49;8.70;99.90
947;DHT22;460;48.734;9.152;2022-11-25T11:58:28;8.60;99.90
947;DHT22;460;48.734;9.152;2022-11-25T12:01:06;8.50;99.90
947;DHT22;460;48.734;9.152;2022-11-25T12:03:37;8.50;99.90
947;DHT22;460;48.734;9.152;2022-11-25T12:06:09;8.50;99.90
947;DHT22;460;48.734;9.152;2022-11-25T12:08:42;8.50;99.90
947;DHT22;460;48.734;9.152;2022-11-25T12:11:15;8.40;99.90
947;DHT22;460;48.734;9.152;2022-11-25T12:13:51;8.30;99.90
947;DHT22;460;48.734;9.152;2022-11-25T12:16:36;8.40;99.90
947;DHT22;460;48.734;9.152;2022-11-25T12:19:12;8.20;99.90
947;DHT22;460;48.734;9.152;2022-11-25T12:21:45;8.30;99.90
947;DHT22;460;48.734;9.152;2022-11-25T12:24:20;8.30;99.90
947;DHT22;460;48.734;9.152;2022-11-25T12:26:56;8.30;99.90
947;DHT22;460;48.734;9.152;2022-11-25T12:29:34;8.30;99.90
947;DHT22;460;48.734;9.152;2022-11-25T12:32:21;8.60;99.90
947;DHT22;460;48.734;9.152;2022-11-25T12:34:57;8.50;99.90
947;DHT22;460;48.734;9.152;2022-11-25T12:37:32;8.50;99.90
947;DHT22;460;48.734;9.152;2022-11-25T12:40:06;8.50;99.90
947;DHT22;460;48.734;9.152;2022-11-25T12:42:42;8.50;99.90
947;DHT22;460;48.734;9.152;2022-11-25T12:45:16;8.50;99.90
947;DHT22;460;48.734;9.152;2022-11-25T12:47:49;8.50;99.90
947;DHT22;460;48.734;9.152;2022-11-25T12:50:21;8.50;99.90
947;DHT22;460;48.734;9.152;2022-11-25T12:52:53;8.30;99.90
947;DHT22;460;48.734;9.152;2022-11-25T12:55:30;8.60;99.90
947;DHT22;460;48.734;9.152;2022-11-25T12:58:23;8.50;99.90
947;DHT22;460;48.734;9.152;2022-11-25T13:01:19;8.50;99.90
947;DHT22;460;48.734;9.152;2022-11-25T13:04:21;8.40;99.90
947;DHT22;460;48.734;9.152;2022-11-25T13:07:26;8.40;99.90
947;DHT22;460;48.734;9.152;2022-11-25T13:13:18;8.30;99.90
947;DHT22;460;48.734;9.152;2022-11-25T13:15:47;8.30;99.90
947;DHT22;460;48.734;9.152;2022-11-25T13:18:20;8.20;99.90
947;DHT22;460;48.734;9.152;2022-11-25T13:20:49;8.20;99.90
947;DHT22;460;48.734;9.152;2022-11-25T13:23:28;8.20;99.90
947;DHT22;460;48.734;9.152;2022-11-25T13:26:34;8.10;99.90
947;DHT22;460;48.734;9.152;2022-11-25T13:31:56;8.00;99.90
947;DHT22;460;48.734;9.152;2022-11-25T13:34:28;8.10;99.90
947;DHT22;460;48.734;9.152;2022-11-25T13:36:57;8.20;99.90
947;DHT22;460;48.734;9.152;2022-11-25T13:39:32;8.20;99.90
947;DHT22;460;48.734;9.152;2022-11-25T13:42:02;8.00;99.90
947;DHT22;460;48.734;9.152;2022-11-25T13:44:32;8.10;99.90
947;DHT22;460;48.734;9.152;2022-11-25T13:47:22;8.20;99.90
947;DHT22;460;48.734;9.152;2022-11-25T13:49:55;8.20;99.90
947;DHT22;460;48.734;9.152;2022-11-25T13:52:39;8.30;99.90
947;DHT22;460;48.734;9.152;2022-11-25T13:55:24;8.40;99.90
947;DHT22;460;48.734;9.152;2022-11-25T13:58:12;8.40;99.90
947;DHT22;460;48.734;9.152;2022-11-25T14:01:01;8.40;99.90
947;DHT22;460;48.734;9.152;2022-11-25T14:03:53;8.30;99.90
947;DHT22;460;48.734;9.152;2022-11-25T14:06:46;8.20;99.90
947;DHT22;460;48.734;9.152;2022-11-25T14:09:40;8.20;99.90
947;DHT22;460;48.734;9.152;2022-11-25T14:12:34;8.20;99.90
947;DHT22;460;48.734;9.152;2022-11-25T14:18:22;8.10;99.90
947;DHT22;460;48.734;9.152;2022-11-25T14:20:57;8.10;99.90
947;DHT22;460;48.734;9.152;2022-11-25T14:23:45;8.00;99.90
947;DHT22;460;48.734;9.152;2022-11-25T14:26:23;8.10;99.90
947;DHT22;460;48.734;9.152;2022-11-25T14:28:55;8.10;99.90
947;DHT22;460;48.734;9.152;2022-11-25T14:31:29;8.10;99.90
947;DHT22;460;48.734;9.152;2022-11-25T14:34:00;8.20;99.90
947;DHT22;460;48.734;9.152;2022-11-25T14:36:33;8.20;99.90
947;DHT22;460;48.734;9.152;2022-11-25T14:39:05;8.10;99.90
947;DHT22;460;48.734;9.152;2022-11-25T14:41:37;8.10;99.90
947;DHT22;460;48.734;9.152;2022-11-25T14:44:05;8.10;99.90
947;DHT22;460;48.734;9.152;2022-11-25T14:46:49;8.00;99.90
947;DHT22;460;48.734;9.152;2022-11-25T14:49:16;8.00;99.90
947;DHT22;460;48.734;9.152;2022-11-25T14:51:46;8.10;99.90
947;DHT22;460;48.734;9.152;2022-11-25T14:54:16;8.00;99.90
947;DHT22;460;48.734;9.152;2022-11-25T14:56:44;8.10;99.90
947;DHT22;460;48.734;9.152;2022-11-25T14:59:12;8.10;99.90
947;DHT22;460;48.734;9.152;2022-11-25T15:01:50;8.10;99.90
947;DHT22;460;48.734;9.152;2022-11-25T15:04:18;8.10;99.90
947;DHT22;460;48.734;9.152;2022-11-25T15:06:48;8.00;99.90
947;DHT22;460;48.734;9.152;2022-11-25T15:09:21;8.00;99.90
947;DHT22;460;48.734;9.152;2022-11-25T15:11:51;8.00;99.90
947;DHT22;460;48.734;9.152;2022-11-25T15:14:23;8.00;99.90
947;DHT22;460;48.734;9.152;2022-11-25T15:16:51;8.10;99.90
947;DHT22;460;48.734;9.152;2022-11-25T15:19:21;8.00;99.90
947;DHT22;460;48.734;9.152;2022-11-25T15:21:56;8.00;99.90
947;DHT22;460;48.734;9.152;2022-11-25T15:24:28;7.90;99.90
947;DHT22;460;48.734;9.152;2022-11-25T15:26:56;7.90;99.90
947;DHT22;460;48.734;9.152;2022-11-25T15:29:24;7.90;99.90
947;DHT22;460;48.734;9.152;2022-11-25T15:31:51;7.70;99.90
947;DHT22;460;48.734;9.152;2022-11-25T15:34:20;7.70;99.90
947;DHT22;460;48.734;9.152;2022-11-25T15:36:47;7.70;99.90
947;DHT22;460;48.734;9.152;2022-11-25T15:39:21;7.70;99.90
947;DHT22;460;48.734;9.152;2022-11-25T15:41:51;7.70;99.90
947;DHT22;460;48.734;9.152;2022-11-25T15:44:21;7.70;99.90
947;DHT22;460;48.734;9.152;2022-11-25T15:46:52;7.70;99.90
947;DHT22;460;48.734;9.152;2022-11-25T15:49:20;7.70;99.90
947;DHT22;460;48.734;9.152;2022-11-25T15:51:51;7.70;99.90
947;DHT22;460;48.734;9.152;2022-11-25T15:54:21;7.60;99.90
947;DHT22;460;48.734;9.152;2022-11-25T15:56:51;7.60;99.90
947;DHT22;460;48.734;9.152;2022-11-25T15:59:49;7.60;99.90
947;DHT22;460;48.734;9.152;2022-11-25T16:02:33;7.60;99.90
947;DHT22;460;48.734;9.152;2022-11-25T16:05:24;7.50;99.90
947;DHT22;460;48.734;9.152;2022-11-25T16:10:52;7.30;99.90
947;DHT22;460;48.734;9.152;2022-11-25T16:16:21;7.20;99.90
947;DHT22;460;48.734;9.152;2022-11-25T16:19:16;7.20;99.90
947;DHT22;460;48.734;9.152;2022-11-25T16:21:55;7.10;99.90
947;DHT22;460;48.734;9.152;2022-11-25T16:27:19;7.10;99.90
947;DHT22;460;48.734;9.152;2022-11-25T16:29:50;7.00;99.90
947;DHT22;460;48.734;9.152;2022-11-25T16:32:19;7.00;99.90
947;DHT22;460;48.734;9.152;2022-11-25T16:34:47;7.00;99.90
947;DHT22;460;48.734;9.152;2022-11-25T16:37:14;6.90;99.90
947;DHT22;460;48.734;9.152;2022-11-25T16:39:41;7.40;99.90
947;DHT22;460;48.734;9.152;2022-11-25T16:42:16;7.10;99.90
947;DHT22;460;48.734;9.152;2022-11-25T16:44:46;7.10;99.90
947;DHT22;460;48.734;9.152;2022-11-25T16:47:17;7.10;99.90
947;DHT22;460;48.734;9.152;2022-11-25T16:49:45;7.10;99.90
947;DHT22;460;48.734;9.152;2022-11-25T16:52:12;7.10;99.90
947;DHT22;460;48.734;9.152;2022-11-25T16:54:39;7.20;99.90
947;DHT22;460;48.734;9.152;2022-11-25T16:57:08;7.10;99.90
947;DHT22;460;48.734;9.152;2022-11-25T16:59:40;7.30;99.90
947;DHT22;460;48.734;9.152;2022-11-25T17:02:13;7.20;99.90
947;DHT22;460;48.734;9.152;2022-11-25T17:04:43;7.20;99.90
947;DHT22;460;48.734;9.152;2022-11-25T17:07:11;7.10;99.90
947;DHT22;460;48.734;9.152;2022-11-25T17:09:38;7.50;99.90
947;DHT22;460;48.734;9.152;2022-11-25T17:12:06;7.20;99.90
947;DHT22;460;48.734;9.152;2022-11-25T17:14:37;7.00;99.90
947;DHT22;460;48.734;9.152;2022-11-25T17:17:04;7.10;99.90
947;DHT22;460;48.734;9.152;2022-11-25T17:19:31;7.10;99.90
947;DHT22;460;48.734;9.152;2022-11-25T17:21:59;7.10;99.90
947;DHT22;460;48.734;9.152;2022-11-25T17:24:26;7.10;99.90
947;DHT22;460;48.734;9.152;2022-11-25T17:26:56;7.00;99.90
947;DHT22;460;48.734;9.152;2022-11-25T17:29:30;7.00;99.90
947;DHT22;460;48.734;9.152;2022-11-25T17:31:58;6.90;99.90
947;DHT22;460;48.734;9.152;2022-11-25T17:34:24;6.90;99.90
947;DHT22;460;48.734;9.152;2022-11-25T17:36:51;6.80;99.90